sensor_id;sensor_type;location;lat;lon;timestamp;P1;durP1;ratioP1;P2;durP2;ratioP2
74922;SDS011;64715;44.760;37.678;2022-12-24T00:00:25;52.30;;;12.57;;
74922;SDS011;64715;44.760;37.678;2022-12-24T00:01:26;51.05;;;13.57;;
74922;SDS011;64715;44.760;37.678;2022-12-24T00:02:27;51.42;;;13.23;;
74922;SDS011;64715;44.760;37.678;2022-12-24T00:03:28;57.17;;;14.02;;
74922;SDS011;64715;44.760;37.678;2022-12-24T00:04:29;49.80;;;14.30;;
74922;SDS011;64715;44.760;37.678;2022-12-24T00:05:30;62.95;;;14.32;;
74922;SDS011;64715;44.760;37.678;2022-12-24T00:06:31;51.88;;;14.00;;
74922;SDS011;64715;44.760;37.678;2022-12-24T00:07:33;56.50;;;13.57;;
74922;SDS011;64715;44.760;37.678;2022-12-24T00:08:34;59.22;;;14.43;;
74922;SDS011;64715;44.760;37.678;2022-12-24T00:09:36;52.58;;;13.43;;
74922;SDS011;64715;44.760;37.678;2022-12-24T00:10:37;54.80;;;13.00;;
74922;SDS011;64715;44.760;37.678;2022-12-24T00:11:38;49.75;;;11.90;;
74922;SDS011;64715;44.760;37.678;2022-12-24T00:12:39;49.47;;;13.13;;
74922;SDS011;64715;44.760;37.678;2022-12-24T00:13:40;44.60;;;11.70;;
74922;SDS011;64715;44.760;37.678;2022-12-24T00:14:41;40.63;;;11.15;;
74922;SDS011;64715;44.760;37.678;2022-12-24T00:15:43;38.40;;;11.52;;
74922;SDS011;64715;44.760;37.678;2022-12-24T00:16:44;42.63;;;12.30;;
74922;SDS011;64715;44.760;37.678;2022-12-24T00:17:45;47.13;;;12.38;;
74922;SDS011;64715;44.760;37.678;2022-12-24T00:18:46;44.95;;;12.02;;
74922;SDS011;64715;44.760;37.678;2022-12-24T00:19:47;42.55;;;10.98;;
74922;SDS011;64715;44.760;37.678;2022-12-24T00:20:48;39.10;;;11.05;;
74922;SDS011;64715;44.760;37.678;2022-12-24T00:21:49;38.90;;;10.82;;
74922;SDS011;64715;44.760;37.678;2022-12-24T00:22:50;44.53;;;10.80;;
74922;SDS011;64715;44.760;37.678;2022-12-24T00:23:51;46.55;;;11.52;;
74922;SDS011;64715;44.760;37.678;2022-12-24T00:24:53;42.55;;;10.77;;
74922;SDS011;64715;44.760;37.678;2022-12-24T00:25:54;48.50;;;11.15;;
74922;SDS011;64715;44.760;37.678;2022-12-24T00:26:55;44.40;;;11.18;;
74922;SDS011;64715;44.760;37.678;2022-12-24T00:27:56;48.95;;;12.57;;
74922;SDS011;64715;44.760;37.678;2022-12-24T00:28:57;48.05;;;12.32;;
74922;SDS011;64715;44.760;37.678;2022-12-24T00:29:58;48.33;;;11.33;;
74922;SDS011;64715;44.760;37.678;2022-12-24T00:30:59;45.60;;;11.25;;
74922;SDS011;64715;44.760;37.678;2022-12-24T00:32:24;46.75;;;11.07;;
74922;SDS011;64715;44.760;37.678;2022-12-24T00:33:46;45.97;;;11.05;;
74922;SDS011;64715;44.760;37.678;2022-12-24T00:34:47;50.22;;;11.95;;
74922;SDS011;64715;44.760;37.678;2022-12-24T00:35:49;41.15;;;11.90;;
74922;SDS011;64715;44.760;37.678;2022-12-24T00:36:52;37.40;;;11.70;;
74922;SDS011;64715;44.760;37.678;2022-12-24T00:37:53;37.55;;;11.82;;
74922;SDS011;64715;44.760;37.678;2022-12-24T00:38:54;37.83;;;12.27;;
74922;SDS011;64715;44.760;37.678;2022-12-24T00:39:55;37.63;;;11.60;;
74922;SDS011;64715;44.760;37.678;2022-12-24T00:41:00;39.25;;;11.63;;
74922;SDS011;64715;44.760;37.678;2022-12-24T00:42:02;38.00;;;12.68;;
74922;SDS011;64715;44.760;37.678;2022-12-24T00:43:03;39.80;;;12.05;;
74922;SDS011;64715;44.760;37.678;2022-12-24T00:44:05;38.85;;;11.75;;
74922;SDS011;64715;44.760;37.678;2022-12-24T00:45:10;42.15;;;12.10;;
74922;SDS011;64715;44.760;37.678;2022-12-24T00:46:30;46.72;;;12.30;;
74922;SDS011;64715;44.760;37.678;2022-12-24T00:47:32;47.92;;;12.02;;
74922;SDS011;64715;44.760;37.678;2022-12-24T00:48:33;39.77;;;11.37;;
74922;SDS011;64715;44.760;37.678;2022-12-24T00:49:34;43.83;;;12.75;;
74922;SDS011;64715;44.760;37.678;2022-12-24T00:50:36;41.05;;;11.55;;
74922;SDS011;64715;44.760;37.678;2022-12-24T00:51:37;42.08;;;12.27;;
74922;SDS011;64715;44.760;37.678;2022-12-24T00:52:38;38.30;;;11.13;;
74922;SDS011;64715;44.760;37.678;2022-12-24T00:53:41;37.83;;;11.23;;
74922;SDS011;64715;44.760;37.678;2022-12-24T00:54:42;42.83;;;11.20;;
74922;SDS011;64715;44.760;37.678;2022-12-24T00:55:43;43.72;;;11.68;;
74922;SDS011;64715;44.760;37.678;2022-12-24T00:56:44;35.05;;;11.23;;
74922;SDS011;64715;44.760;37.678;2022-12-24T00:57:45;40.60;;;11.80;;
74922;SDS011;64715;44.760;37.678;2022-12-24T00:58:46;39.17;;;11.68;;
74922;SDS011;64715;44.760;37.678;2022-12-24T01:00:06;37.40;;;10.75;;
74922;SDS011;64715;44.760;37.678;2022-12-24T01:01:08;46.83;;;11.80;;
74922;SDS011;64715;44.760;37.678;2022-12-24T01:02:09;45.97;;;11.73;;
74922;SDS011;64715;44.760;37.678;2022-12-24T01:03:11;40.07;;;11.60;;
74922;SDS011;64715;44.760;37.678;2022-12-24T01:04:11;43.58;;;12.10;;
74922;SDS011;64715;44.760;37.678;2022-12-24T01:05:31;39.97;;;11.65;;
74922;SDS011;64715;44.760;37.678;2022-12-24T01:06:32;41.80;;;11.57;;
74922;SDS011;64715;44.760;37.678;2022-12-24T01:07:33;39.88;;;11.73;;
74922;SDS011;64715;44.760;37.678;2022-12-24T01:08:34;44.05;;;11.50;;
74922;SDS011;64715;44.760;37.678;2022-12-24T01:09:36;37.03;;;11.18;;
74922;SDS011;64715;44.760;37.678;2022-12-24T01:10:37;42.20;;;11.20;;
74922;SDS011;64715;44.760;37.678;2022-12-24T01:11:38;39.88;;;11.70;;
74922;SDS011;64715;44.760;37.678;2022-12-24T01:12:40;41.58;;;10.65;;
74922;SDS011;64715;44.760;37.678;2022-12-24T01:13:41;38.55;;;10.15;;
74922;SDS011;64715;44.760;37.678;2022-12-24T01:14:42;32.97;;;10.38;;
74922;SDS011;64715;44.760;37.678;2022-12-24T01:15:43;41.25;;;10.57;;
74922;SDS011;64715;44.760;37.678;2022-12-24T01:16:44;34.10;;;9.70;;
74922;SDS011;64715;44.760;37.678;2022-12-24T01:18:03;41.05;;;9.52;;
74922;SDS011;64715;44.760;37.678;2022-12-24T01:19:23;37.50;;;9.55;;
74922;SDS011;64715;44.760;37.678;2022-12-24T01:20:24;41.08;;;10.55;;
74922;SDS011;64715;44.760;37.678;2022-12-24T01:21:30;43.45;;;10.48;;
74922;SDS011;64715;44.760;37.678;2022-12-24T01:22:31;43.72;;;10.95;;
74922;SDS011;64715;44.760;37.678;2022-12-24T01:23:32;47.65;;;11.35;;
74922;SDS011;64715;44.760;37.678;2022-12-24T01:24:34;50.17;;;11.73;;
74922;SDS011;64715;44.760;37.678;2022-12-24T01:25:36;48.57;;;11.97;;
74922;SDS011;64715;44.760;37.678;2022-12-24T01:26:38;48.25;;;11.48;;
74922;SDS011;64715;44.760;37.678;2022-12-24T01:27:39;54.72;;;11.32;;
74922;SDS011;64715;44.760;37.678;2022-12-24T01:28:40;48.75;;;12.15;;
74922;SDS011;64715;44.760;37.678;2022-12-24T01:29:41;43.20;;;10.68;;
74922;SDS011;64715;44.760;37.678;2022-12-24T01:30:42;40.55;;;11.05;;
74922;SDS011;64715;44.760;37.678;2022-12-24T01:31:44;50.53;;;11.23;;
74922;SDS011;64715;44.760;37.678;2022-12-24T01:32:45;42.67;;;10.90;;
74922;SDS011;64715;44.760;37.678;2022-12-24T01:33:47;44.45;;;10.00;;
74922;SDS011;64715;44.760;37.678;2022-12-24T01:34:49;44.17;;;11.20;;
74922;SDS011;64715;44.760;37.678;2022-12-24T01:35:50;40.45;;;10.77;;
74922;SDS011;64715;44.760;37.678;2022-12-24T01:36:50;44.90;;;11.15;;
74922;SDS011;64715;44.760;37.678;2022-12-24T01:37:51;42.80;;;11.05;;
74922;SDS011;64715;44.760;37.678;2022-12-24T01:38:52;41.67;;;10.98;;
74922;SDS011;64715;44.760;37.678;2022-12-24T01:39:53;36.20;;;10.23;;
74922;SDS011;64715;44.760;37.678;2022-12-24T01:41:19;38.53;;;10.88;;
74922;SDS011;64715;44.760;37.678;2022-12-24T01:42:41;35.20;;;10.10;;
74922;SDS011;64715;44.760;37.678;2022-12-24T01:44:25;46.83;;;10.73;;
74922;SDS011;64715;44.760;37.678;2022-12-24T01:46:47;55.05;;;11.50;;
74922;SDS011;64715;44.760;37.678;2022-12-24T01:47:51;49.58;;;11.95;;
74922;SDS011;64715;44.760;37.678;2022-12-24T01:48:53;57.63;;;12.82;;
74922;SDS011;64715;44.760;37.678;2022-12-24T01:50:00;56.57;;;12.27;;
74922;SDS011;64715;44.760;37.678;2022-12-24T01:52:14;59.65;;;12.55;;
74922;SDS011;64715;44.760;37.678;2022-12-24T01:53:20;60.80;;;13.77;;
74922;SDS011;64715;44.760;37.678;2022-12-24T01:54:23;63.20;;;12.88;;
74922;SDS011;64715;44.760;37.678;2022-12-24T01:55:36;54.33;;;13.38;;
74922;SDS011;64715;44.760;37.678;2022-12-24T01:56:39;62.10;;;13.38;;
74922;SDS011;64715;44.760;37.678;2022-12-24T01:58:17;59.63;;;13.30;;
74922;SDS011;64715;44.760;37.678;2022-12-24T01:59:14;57.37;;;12.97;;
74922;SDS011;64715;44.760;37.678;2022-12-24T02:00:19;57.47;;;14.27;;
74922;SDS011;64715;44.760;37.678;2022-12-24T02:01:20;69.15;;;14.38;;
74922;SDS011;64715;44.760;37.678;2022-12-24T02:02:21;68.00;;;14.23;;
74922;SDS011;64715;44.760;37.678;2022-12-24T02:03:23;58.45;;;13.82;;
74922;SDS011;64715;44.760;37.678;2022-12-24T02:05:44;65.10;;;13.73;;
74922;SDS011;64715;44.760;37.678;2022-12-24T02:06:50;60.78;;;13.18;;
74922;SDS011;64715;44.760;37.678;2022-12-24T02:07:51;59.05;;;12.55;;
74922;SDS011;64715;44.760;37.678;2022-12-24T02:08:53;59.27;;;12.43;;
74922;SDS011;64715;44.760;37.678;2022-12-24T02:09:58;61.00;;;12.82;;
74922;SDS011;64715;44.760;37.678;2022-12-24T02:11:00;54.85;;;12.73;;
74922;SDS011;64715;44.760;37.678;2022-12-24T02:12:02;57.22;;;12.23;;
74922;SDS011;64715;44.760;37.678;2022-12-24T02:13:05;51.70;;;12.05;;
74922;SDS011;64715;44.760;37.678;2022-12-24T02:14:06;53.58;;;11.57;;
74922;SDS011;64715;44.760;37.678;2022-12-24T02:15:10;55.30;;;11.68;;
74922;SDS011;64715;44.760;37.678;2022-12-24T02:16:35;48.83;;;12.15;;
74922;SDS011;64715;44.760;37.678;2022-12-24T02:22:17;48.58;;;10.57;;
74922;SDS011;64715;44.760;37.678;2022-12-24T02:25:09;55.05;;;12.48;;
74922;SDS011;64715;44.760;37.678;2022-12-24T02:26:48;48.45;;;12.70;;
74922;SDS011;64715;44.760;37.678;2022-12-24T02:30:30;47.97;;;11.70;;
74922;SDS011;64715;44.760;37.678;2022-12-24T02:31:58;44.42;;;10.70;;
74922;SDS011;64715;44.760;37.678;2022-12-24T02:33:20;52.22;;;11.45;;
74922;SDS011;64715;44.760;37.678;2022-12-24T02:34:44;48.37;;;11.33;;
74922;SDS011;64715;44.760;37.678;2022-12-24T02:35:56;52.00;;;11.02;;
74922;SDS011;64715;44.760;37.678;2022-12-24T02:37:38;52.05;;;12.25;;
74922;SDS011;64715;44.760;37.678;2022-12-24T02:38:45;50.28;;;11.50;;
74922;SDS011;64715;44.760;37.678;2022-12-24T02:40:44;46.97;;;11.15;;
74922;SDS011;64715;44.760;37.678;2022-12-24T02:41:29;47.80;;;10.90;;
74922;SDS011;64715;44.760;37.678;2022-12-24T02:43:14;35.75;;;9.88;;
74922;SDS011;64715;44.760;37.678;2022-12-24T02:44:21;42.95;;;10.40;;
74922;SDS011;64715;44.760;37.678;2022-12-24T02:45:30;49.38;;;12.40;;
74922;SDS011;64715;44.760;37.678;2022-12-24T02:46:33;49.28;;;11.40;;
74922;SDS011;64715;44.760;37.678;2022-12-24T02:47:34;52.17;;;11.60;;
74922;SDS011;64715;44.760;37.678;2022-12-24T02:48:37;49.20;;;11.35;;
74922;SDS011;64715;44.760;37.678;2022-12-24T02:49:43;46.55;;;11.55;;
74922;SDS011;64715;44.760;37.678;2022-12-24T02:50:56;47.90;;;11.70;;
74922;SDS011;64715;44.760;37.678;2022-12-24T02:52:02;50.65;;;11.90;;
74922;SDS011;64715;44.760;37.678;2022-12-24T02:53:04;56.95;;;14.05;;
74922;SDS011;64715;44.760;37.678;2022-12-24T02:54:10;52.65;;;12.75;;
74922;SDS011;64715;44.760;37.678;2022-12-24T02:55:14;55.85;;;12.90;;
74922;SDS011;64715;44.760;37.678;2022-12-24T02:57:53;52.57;;;12.20;;
74922;SDS011;64715;44.760;37.678;2022-12-24T03:00:22;53.10;;;13.05;;
74922;SDS011;64715;44.760;37.678;2022-12-24T03:01:30;49.75;;;12.45;;
74922;SDS011;64715;44.760;37.678;2022-12-24T03:03:47;49.88;;;13.13;;
74922;SDS011;64715;44.760;37.678;2022-12-24T03:07:20;46.67;;;12.40;;
74922;SDS011;64715;44.760;37.678;2022-12-24T03:11:34;35.00;;;10.00;;
74922;SDS011;64715;44.760;37.678;2022-12-24T03:12:38;40.15;;;11.10;;
74922;SDS011;64715;44.760;37.678;2022-12-24T03:13:42;39.72;;;10.43;;
74922;SDS011;64715;44.760;37.678;2022-12-24T03:14:45;45.38;;;10.90;;
74922;SDS011;64715;44.760;37.678;2022-12-24T03:15:49;45.38;;;10.27;;
74922;SDS011;64715;44.760;37.678;2022-12-24T03:16:51;40.60;;;10.75;;
74922;SDS011;64715;44.760;37.678;2022-12-24T03:17:53;44.42;;;11.93;;
74922;SDS011;64715;44.760;37.678;2022-12-24T03:18:57;35.85;;;10.68;;
74922;SDS011;64715;44.760;37.678;2022-12-24T03:20:00;39.63;;;10.60;;
74922;SDS011;64715;44.760;37.678;2022-12-24T03:22:11;38.47;;;10.45;;
74922;SDS011;64715;44.760;37.678;2022-12-24T03:23:13;37.22;;;11.75;;
74922;SDS011;64715;44.760;37.678;2022-12-24T03:24:16;42.15;;;11.85;;
74922;SDS011;64715;44.760;37.678;2022-12-24T03:25:17;39.28;;;11.80;;
74922;SDS011;64715;44.760;37.678;2022-12-24T03:26:20;36.47;;;11.40;;
74922;SDS011;64715;44.760;37.678;2022-12-24T03:27:24;38.00;;;11.40;;
74922;SDS011;64715;44.760;37.678;2022-12-24T03:28:26;36.05;;;12.23;;
74922;SDS011;64715;44.760;37.678;2022-12-24T03:29:28;34.10;;;10.70;;
74922;SDS011;64715;44.760;37.678;2022-12-24T03:30:29;34.67;;;10.52;;
74922;SDS011;64715;44.760;37.678;2022-12-24T03:31:43;33.03;;;10.00;;
74922;SDS011;64715;44.760;37.678;2022-12-24T03:32:46;37.00;;;9.82;;
74922;SDS011;64715;44.760;37.678;2022-12-24T03:33:48;26.80;;;8.80;;
74922;SDS011;64715;44.760;37.678;2022-12-24T03:34:49;23.70;;;8.35;;
74922;SDS011;64715;44.760;37.678;2022-12-24T03:35:50;27.08;;;8.70;;
74922;SDS011;64715;44.760;37.678;2022-12-24T03:36:51;25.88;;;7.82;;
74922;SDS011;64715;44.760;37.678;2022-12-24T03:37:52;24.13;;;8.07;;
74922;SDS011;64715;44.760;37.678;2022-12-24T03:38:53;22.88;;;8.32;;
74922;SDS011;64715;44.760;37.678;2022-12-24T03:39:54;23.20;;;8.23;;
74922;SDS011;64715;44.760;37.678;2022-12-24T03:40:55;22.90;;;8.70;;
74922;SDS011;64715;44.760;37.678;2022-12-24T03:41:56;25.95;;;9.15;;
74922;SDS011;64715;44.760;37.678;2022-12-24T03:42:58;23.58;;;9.10;;
74922;SDS011;64715;44.760;37.678;2022-12-24T03:43:59;23.65;;;7.85;;
74922;SDS011;64715;44.760;37.678;2022-12-24T03:45:00;18.58;;;7.40;;
74922;SDS011;64715;44.760;37.678;2022-12-24T03:46:05;19.45;;;7.47;;
74922;SDS011;64715;44.760;37.678;2022-12-24T03:47:07;21.48;;;7.68;;
74922;SDS011;64715;44.760;37.678;2022-12-24T03:48:08;18.40;;;7.50;;
74922;SDS011;64715;44.760;37.678;2022-12-24T03:49:28;20.02;;;6.88;;
74922;SDS011;64715;44.760;37.678;2022-12-24T03:50:30;16.52;;;6.40;;
74922;SDS011;64715;44.760;37.678;2022-12-24T03:51:31;18.13;;;6.60;;
74922;SDS011;64715;44.760;37.678;2022-12-24T03:52:33;16.98;;;6.55;;
74922;SDS011;64715;44.760;37.678;2022-12-24T03:53:34;17.50;;;6.53;;
74922;SDS011;64715;44.760;37.678;2022-12-24T03:54:35;20.15;;;7.03;;
74922;SDS011;64715;44.760;37.678;2022-12-24T03:55:37;21.85;;;7.97;;
74922;SDS011;64715;44.760;37.678;2022-12-24T03:56:38;22.55;;;7.75;;
74922;SDS011;64715;44.760;37.678;2022-12-24T03:57:39;21.40;;;7.87;;
74922;SDS011;64715;44.760;37.678;2022-12-24T03:58:41;22.05;;;8.07;;
74922;SDS011;64715;44.760;37.678;2022-12-24T03:59:42;22.90;;;8.20;;
74922;SDS011;64715;44.760;37.678;2022-12-24T04:00:43;21.75;;;8.73;;
74922;SDS011;64715;44.760;37.678;2022-12-24T04:01:44;22.80;;;8.57;;
74922;SDS011;64715;44.760;37.678;2022-12-24T04:02:45;21.65;;;8.45;;
74922;SDS011;64715;44.760;37.678;2022-12-24T04:03:46;18.47;;;6.90;;
74922;SDS011;64715;44.760;37.678;2022-12-24T04:04:47;19.92;;;7.13;;
74922;SDS011;64715;44.760;37.678;2022-12-24T04:05:58;18.38;;;6.95;;
74922;SDS011;64715;44.760;37.678;2022-12-24T04:07:09;21.90;;;7.60;;
74922;SDS011;64715;44.760;37.678;2022-12-24T04:08:11;23.25;;;8.38;;
74922;SDS011;64715;44.760;37.678;2022-12-24T04:09:12;21.33;;;7.93;;
74922;SDS011;64715;44.760;37.678;2022-12-24T04:10:31;20.40;;;8.13;;
74922;SDS011;64715;44.760;37.678;2022-12-24T04:11:32;21.42;;;8.13;;
74922;SDS011;64715;44.760;37.678;2022-12-24T04:12:33;20.57;;;7.07;;
74922;SDS011;64715;44.760;37.678;2022-12-24T04:13:35;19.77;;;7.50;;
74922;SDS011;64715;44.760;37.678;2022-12-24T04:14:37;19.35;;;7.43;;
74922;SDS011;64715;44.760;37.678;2022-12-24T04:15:38;20.50;;;7.95;;
74922;SDS011;64715;44.760;37.678;2022-12-24T04:16:39;22.40;;;8.48;;
74922;SDS011;64715;44.760;37.678;2022-12-24T04:17:41;21.88;;;7.90;;
74922;SDS011;64715;44.760;37.678;2022-12-24T04:18:42;18.70;;;7.47;;
74922;SDS011;64715;44.760;37.678;2022-12-24T04:19:43;19.77;;;8.13;;
74922;SDS011;64715;44.760;37.678;2022-12-24T04:20:44;23.48;;;7.63;;
74922;SDS011;64715;44.760;37.678;2022-12-24T04:21:45;19.80;;;6.88;;
74922;SDS011;64715;44.760;37.678;2022-12-24T04:22:45;19.88;;;7.40;;
74922;SDS011;64715;44.760;37.678;2022-12-24T04:23:47;18.63;;;7.38;;
74922;SDS011;64715;44.760;37.678;2022-12-24T04:24:48;19.05;;;7.18;;
74922;SDS011;64715;44.760;37.678;2022-12-24T04:25:49;18.42;;;6.75;;
74922;SDS011;64715;44.760;37.678;2022-12-24T04:26:50;18.38;;;7.07;;
74922;SDS011;64715;44.760;37.678;2022-12-24T04:27:51;17.90;;;6.60;;
74922;SDS011;64715;44.760;37.678;2022-12-24T04:28:52;16.13;;;6.45;;
74922;SDS011;64715;44.760;37.678;2022-12-24T04:29:54;18.42;;;6.57;;
74922;SDS011;64715;44.760;37.678;2022-12-24T04:30:58;15.85;;;6.20;;
74922;SDS011;64715;44.760;37.678;2022-12-24T04:32:00;15.32;;;6.05;;
74922;SDS011;64715;44.760;37.678;2022-12-24T04:33:01;17.13;;;7.15;;
74922;SDS011;64715;44.760;37.678;2022-12-24T04:34:02;16.87;;;6.77;;
74922;SDS011;64715;44.760;37.678;2022-12-24T04:35:03;16.40;;;6.45;;
74922;SDS011;64715;44.760;37.678;2022-12-24T04:36:05;16.92;;;6.55;;
74922;SDS011;64715;44.760;37.678;2022-12-24T04:37:07;18.05;;;6.30;;
74922;SDS011;64715;44.760;37.678;2022-12-24T04:38:08;17.77;;;6.75;;
74922;SDS011;64715;44.760;37.678;2022-12-24T04:39:11;18.00;;;6.07;;
74922;SDS011;64715;44.760;37.678;2022-12-24T04:40:12;14.63;;;5.90;;
74922;SDS011;64715;44.760;37.678;2022-12-24T04:41:14;16.50;;;7.00;;
74922;SDS011;64715;44.760;37.678;2022-12-24T04:42:18;18.33;;;6.67;;
74922;SDS011;64715;44.760;37.678;2022-12-24T04:43:19;14.20;;;5.72;;
74922;SDS011;64715;44.760;37.678;2022-12-24T04:44:20;15.40;;;6.00;;
74922;SDS011;64715;44.760;37.678;2022-12-24T04:45:39;17.00;;;5.78;;
74922;SDS011;64715;44.760;37.678;2022-12-24T04:46:40;15.93;;;5.70;;
74922;SDS011;64715;44.760;37.678;2022-12-24T04:47:41;18.45;;;6.57;;
74922;SDS011;64715;44.760;37.678;2022-12-24T04:48:45;16.48;;;6.18;;
74922;SDS011;64715;44.760;37.678;2022-12-24T04:49:47;17.65;;;6.20;;
74922;SDS011;64715;44.760;37.678;2022-12-24T04:50:48;14.97;;;5.70;;
74922;SDS011;64715;44.760;37.678;2022-12-24T04:51:49;17.52;;;5.97;;
74922;SDS011;64715;44.760;37.678;2022-12-24T04:52:50;17.88;;;5.85;;
74922;SDS011;64715;44.760;37.678;2022-12-24T04:53:51;16.58;;;6.03;;
74922;SDS011;64715;44.760;37.678;2022-12-24T04:54:52;17.67;;;6.88;;
74922;SDS011;64715;44.760;37.678;2022-12-24T04:55:53;18.52;;;6.70;;
74922;SDS011;64715;44.760;37.678;2022-12-24T04:56:54;18.50;;;7.00;;
74922;SDS011;64715;44.760;37.678;2022-12-24T04:57:56;19.08;;;6.45;;
74922;SDS011;64715;44.760;37.678;2022-12-24T04:58:57;18.17;;;6.28;;
74922;SDS011;64715;44.760;37.678;2022-12-24T04:59:59;17.88;;;6.55;;
74922;SDS011;64715;44.760;37.678;2022-12-24T05:01:04;17.88;;;6.35;;
74922;SDS011;64715;44.760;37.678;2022-12-24T05:02:06;17.65;;;6.28;;
74922;SDS011;64715;44.760;37.678;2022-12-24T05:03:07;17.73;;;6.68;;
74922;SDS011;64715;44.760;37.678;2022-12-24T05:04:08;16.17;;;6.35;;
74922;SDS011;64715;44.760;37.678;2022-12-24T05:05:10;16.80;;;5.93;;
74922;SDS011;64715;44.760;37.678;2022-12-24T05:06:31;16.80;;;6.53;;
74922;SDS011;64715;44.760;37.678;2022-12-24T05:07:33;18.02;;;7.18;;
74922;SDS011;64715;44.760;37.678;2022-12-24T05:08:34;19.52;;;8.60;;
74922;SDS011;64715;44.760;37.678;2022-12-24T05:09:36;23.70;;;10.52;;
74922;SDS011;64715;44.760;37.678;2022-12-24T05:10:36;27.80;;;14.48;;
74922;SDS011;64715;44.760;37.678;2022-12-24T05:11:37;23.45;;;10.30;;
74922;SDS011;64715;44.760;37.678;2022-12-24T05:12:40;23.20;;;11.68;;
74922;SDS011;64715;44.760;37.678;2022-12-24T05:13:41;22.07;;;9.97;;
74922;SDS011;64715;44.760;37.678;2022-12-24T05:14:43;17.35;;;7.25;;
74922;SDS011;64715;44.760;37.678;2022-12-24T05:15:45;18.63;;;6.95;;
74922;SDS011;64715;44.760;37.678;2022-12-24T05:16:45;16.67;;;6.80;;
74922;SDS011;64715;44.760;37.678;2022-12-24T05:17:47;15.43;;;6.32;;
74922;SDS011;64715;44.760;37.678;2022-12-24T05:18:48;18.30;;;6.53;;
74922;SDS011;64715;44.760;37.678;2022-12-24T05:20:08;19.38;;;6.57;;
74922;SDS011;64715;44.760;37.678;2022-12-24T05:21:10;17.58;;;6.68;;
74922;SDS011;64715;44.760;37.678;2022-12-24T05:22:15;17.20;;;5.80;;
74922;SDS011;64715;44.760;37.678;2022-12-24T05:23:52;14.75;;;5.40;;
74922;SDS011;64715;44.760;37.678;2022-12-24T05:25:13;14.45;;;4.93;;
74922;SDS011;64715;44.760;37.678;2022-12-24T05:26:39;25.67;;;7.78;;
74922;SDS011;64715;44.760;37.678;2022-12-24T05:27:54;19.63;;;6.07;;
74922;SDS011;64715;44.760;37.678;2022-12-24T05:28:56;43.72;;;32.15;;
74922;SDS011;64715;44.760;37.678;2022-12-24T05:29:58;16.77;;;6.45;;
74922;SDS011;64715;44.760;37.678;2022-12-24T05:30:59;23.70;;;12.85;;
74922;SDS011;64715;44.760;37.678;2022-12-24T05:32:00;20.85;;;11.07;;
74922;SDS011;64715;44.760;37.678;2022-12-24T05:33:01;16.17;;;7.57;;
74922;SDS011;64715;44.760;37.678;2022-12-24T05:34:04;16.30;;;6.38;;
74922;SDS011;64715;44.760;37.678;2022-12-24T05:35:06;16.13;;;6.88;;
74922;SDS011;64715;44.760;37.678;2022-12-24T05:36:07;16.23;;;6.85;;
74922;SDS011;64715;44.760;37.678;2022-12-24T05:37:10;14.98;;;5.97;;
74922;SDS011;64715;44.760;37.678;2022-12-24T05:38:11;16.63;;;7.10;;
74922;SDS011;64715;44.760;37.678;2022-12-24T05:39:13;17.35;;;6.97;;
74922;SDS011;64715;44.760;37.678;2022-12-24T05:40:34;18.42;;;6.47;;
74922;SDS011;64715;44.760;37.678;2022-12-24T05:41:35;14.60;;;5.80;;
74922;SDS011;64715;44.760;37.678;2022-12-24T05:42:36;30.92;;;8.55;;
74922;SDS011;64715;44.760;37.678;2022-12-24T05:43:38;16.77;;;5.95;;
74922;SDS011;64715;44.760;37.678;2022-12-24T05:44:39;18.27;;;5.90;;
74922;SDS011;64715;44.760;37.678;2022-12-24T05:45:39;20.35;;;6.07;;
74922;SDS011;64715;44.760;37.678;2022-12-24T05:46:41;13.75;;;5.28;;
74922;SDS011;64715;44.760;37.678;2022-12-24T05:48:01;15.95;;;5.28;;
74922;SDS011;64715;44.760;37.678;2022-12-24T05:49:02;14.83;;;5.13;;
74922;SDS011;64715;44.760;37.678;2022-12-24T05:50:03;14.75;;;5.13;;
74922;SDS011;64715;44.760;37.678;2022-12-24T05:51:23;16.35;;;5.43;;
74922;SDS011;64715;44.760;37.678;2022-12-24T05:52:24;15.90;;;5.30;;
74922;SDS011;64715;44.760;37.678;2022-12-24T05:53:44;14.90;;;5.10;;
74922;SDS011;64715;44.760;37.678;2022-12-24T05:54:46;15.32;;;6.22;;
74922;SDS011;64715;44.760;37.678;2022-12-24T05:55:47;16.85;;;6.05;;
74922;SDS011;64715;44.760;37.678;2022-12-24T05:56:48;16.88;;;6.75;;
74922;SDS011;64715;44.760;37.678;2022-12-24T05:57:49;16.00;;;6.27;;
74922;SDS011;64715;44.760;37.678;2022-12-24T05:58:51;18.75;;;6.63;;
74922;SDS011;64715;44.760;37.678;2022-12-24T05:59:53;14.88;;;6.10;;
74922;SDS011;64715;44.760;37.678;2022-12-24T06:00:54;17.35;;;5.78;;
74922;SDS011;64715;44.760;37.678;2022-12-24T06:01:55;14.88;;;5.88;;
74922;SDS011;64715;44.760;37.678;2022-12-24T06:02:56;18.23;;;6.20;;
74922;SDS011;64715;44.760;37.678;2022-12-24T06:04:15;18.10;;;6.57;;
74922;SDS011;64715;44.760;37.678;2022-12-24T06:05:16;15.03;;;5.50;;
74922;SDS011;64715;44.760;37.678;2022-12-24T06:06:19;15.75;;;5.97;;
74922;SDS011;64715;44.760;37.678;2022-12-24T06:07:22;15.25;;;5.95;;
74922;SDS011;64715;44.760;37.678;2022-12-24T06:08:23;15.82;;;5.72;;
74922;SDS011;64715;44.760;37.678;2022-12-24T06:09:24;14.65;;;5.68;;
74922;SDS011;64715;44.760;37.678;2022-12-24T06:10:25;15.48;;;6.18;;
74922;SDS011;64715;44.760;37.678;2022-12-24T06:11:26;22.17;;;8.20;;
74922;SDS011;64715;44.760;37.678;2022-12-24T06:12:27;16.92;;;5.68;;
74922;SDS011;64715;44.760;37.678;2022-12-24T06:13:28;19.15;;;7.72;;
74922;SDS011;64715;44.760;37.678;2022-12-24T06:14:29;20.65;;;8.80;;
74922;SDS011;64715;44.760;37.678;2022-12-24T06:15:31;17.33;;;7.22;;
74922;SDS011;64715;44.760;37.678;2022-12-24T06:16:32;17.05;;;6.35;;
74922;SDS011;64715;44.760;37.678;2022-12-24T06:17:33;16.77;;;6.55;;
74922;SDS011;64715;44.760;37.678;2022-12-24T06:18:35;17.10;;;6.45;;
74922;SDS011;64715;44.760;37.678;2022-12-24T06:19:36;36.77;;;12.87;;
74922;SDS011;64715;44.760;37.678;2022-12-24T06:20:37;25.17;;;9.10;;
74922;SDS011;64715;44.760;37.678;2022-12-24T06:21:38;34.67;;;13.00;;
74922;SDS011;64715;44.760;37.678;2022-12-24T06:22:39;30.15;;;11.23;;
74922;SDS011;64715;44.760;37.678;2022-12-24T06:23:45;50.45;;;16.92;;
74922;SDS011;64715;44.760;37.678;2022-12-24T06:24:51;27.90;;;11.18;;
74922;SDS011;64715;44.760;37.678;2022-12-24T06:25:54;23.75;;;9.05;;
74922;SDS011;64715;44.760;37.678;2022-12-24T06:26:56;24.37;;;9.17;;
74922;SDS011;64715;44.760;37.678;2022-12-24T06:27:57;34.35;;;14.45;;
74922;SDS011;64715;44.760;37.678;2022-12-24T06:28:58;36.42;;;17.27;;
74922;SDS011;64715;44.760;37.678;2022-12-24T06:29:59;32.63;;;14.65;;
74922;SDS011;64715;44.760;37.678;2022-12-24T06:31:00;33.97;;;13.63;;
74922;SDS011;64715;44.760;37.678;2022-12-24T06:32:02;31.05;;;12.38;;
74922;SDS011;64715;44.760;37.678;2022-12-24T06:33:03;26.60;;;10.47;;
74922;SDS011;64715;44.760;37.678;2022-12-24T06:34:06;21.37;;;8.70;;
74922;SDS011;64715;44.760;37.678;2022-12-24T06:35:07;19.52;;;7.03;;
74922;SDS011;64715;44.760;37.678;2022-12-24T06:36:08;22.70;;;8.75;;